createdAt,value
2022-08-03T00:02:19.281Z,3.25
2022-08-03T00:04:47.373Z,3.53
2022-08-03T00:07:15.306Z,3.40
2022-08-03T00:09:43.303Z,3.13
2022-08-03T00:12:11.314Z,4.13
2022-08-03T00:14:38.945Z,3.67
2022-08-03T00:17:06.670Z,3.55
2022-08-03T00:19:35.040Z,3.50
2022-08-03T00:22:02.730Z,3.85
2022-08-03T00:24:31.388Z,3.40
2022-08-03T00:26:59.504Z,3.33
2022-08-03T00:29:27.231Z,3.40
2022-08-03T00:32:00.235Z,3.47
2022-08-03T00:34:57.878Z,3.28
2022-08-03T00:37:16.717Z,3.80
2022-08-03T00:39:47.377Z,3.67
2022-08-03T00:42:16.297Z,4.13
2022-08-03T00:44:45.286Z,3.55
2022-08-03T00:47:13.004Z,3.42
2022-08-03T00:49:42.056Z,3.53
2022-08-03T00:52:10.720Z,3.20
2022-08-03T00:54:38.861Z,2.83
2022-08-03T00:57:07.080Z,3.50
2022-08-03T00:59:34.870Z,3.20
2022-08-03T01:02:02.742Z,3.90
2022-08-03T01:04:30.326Z,3.50
2022-08-03T01:07:17.842Z,3.45
2022-08-03T01:10:04.011Z,4.38
2022-08-03T01:12:48.737Z,3.88
2022-08-03T01:15:58.757Z,4.75
2022-08-03T01:18:31.419Z,4.18
2022-08-03T01:21:01.604Z,5.18
2022-08-03T01:23:49.318Z,5.10
2022-08-03T01:26:42.037Z,4.78
2022-08-03T01:29:47.867Z,5.57
2022-08-03T01:32:59.978Z,5.95
2022-08-03T01:35:44.758Z,5.75
2022-08-03T01:38:22.741Z,6.55
2022-08-03T01:40:54.111Z,6.32
2022-08-03T01:43:58.996Z,7.00
2022-08-03T01:46:17.534Z,6.78
2022-08-03T01:48:48.118Z,6.32
2022-08-03T01:51:18.503Z,6.65
2022-08-03T01:53:49.236Z,7.30
2022-08-03T01:56:18.269Z,7.03
2022-08-03T01:58:48.570Z,7.03
2022-08-03T02:01:18.864Z,7.35
2022-08-03T02:03:59.779Z,6.35
2022-08-03T02:07:00.330Z,6.63
2022-08-03T02:09:22.064Z,7.22
2022-08-03T02:11:52.107Z,7.18
2022-08-03T02:14:22.452Z,6.75
2022-08-03T02:16:51.215Z,6.40
2022-08-03T02:19:19.897Z,5.97
2022-08-03T02:21:56.965Z,6.20
2022-08-03T02:24:30.167Z,5.82
2022-08-03T02:27:00.455Z,6.05
2022-08-03T02:29:40.310Z,5.10
2022-08-03T02:32:17.698Z,4.97
2022-08-03T02:34:49.007Z,5.68
2022-08-03T02:37:19.800Z,4.93
2022-08-03T02:39:49.342Z,4.72
2022-08-03T02:42:21.141Z,4.38
2022-08-03T02:44:52.634Z,4.53
2022-08-03T02:47:21.568Z,3.80
2022-08-03T02:49:52.950Z,3.45
2022-08-03T02:52:23.297Z,3.90
2022-08-03T02:54:53.822Z,4.40
2022-08-03T02:57:22.939Z,3.15
2022-08-03T02:59:52.309Z,3.05
2022-08-03T03:02:20.914Z,3.85
2022-08-03T03:05:52.602Z,3.17
2022-08-03T03:07:51.428Z,2.58
2022-08-03T03:10:24.800Z,3.15
2022-08-03T03:12:55.612Z,2.58
2022-08-03T03:15:25.833Z,4.10
2022-08-03T03:17:53.781Z,3.40
2022-08-03T03:20:29.498Z,3.60
2022-08-03T03:23:02.158Z,5.05
2022-08-03T03:25:34.415Z,3.63
2022-08-03T03:28:03.258Z,3.85
2022-08-03T03:30:34.187Z,3.58
2022-08-03T03:33:02.794Z,3.63
2022-08-03T03:35:30.794Z,3.60
2022-08-03T03:38:07.866Z,3.60
2022-08-03T03:40:37.452Z,4.07
2022-08-03T03:43:09.970Z,4.25
2022-08-03T03:45:38.336Z,3.80
2022-08-03T03:48:06.874Z,4.43
2022-08-03T03:50:37.430Z,3.83
2022-08-03T03:53:05.355Z,4.43
2022-08-03T03:56:02.031Z,4.07
2022-08-03T03:58:25.764Z,3.97
2022-08-03T04:00:54.019Z,4.10
2022-08-03T04:03:21.802Z,4.10
2022-08-03T04:06:08.579Z,4.47
2022-08-03T04:08:54.944Z,4.05
2022-08-03T04:11:35.137Z,4.40
2022-08-03T04:14:10.968Z,4.45
2022-08-03T04:16:43.972Z,4.97
2022-08-03T04:19:25.362Z,5.10
2022-08-03T04:21:57.930Z,4.85
2022-08-03T04:24:30.862Z,4.45
2022-08-03T04:27:00.887Z,4.90
2022-08-03T04:29:31.260Z,5.43
2022-08-03T04:32:01.020Z,5.35
2022-08-03T04:34:31.195Z,4.78
2022-08-03T04:37:01.419Z,5.55
2022-08-03T04:39:32.098Z,5.50
2022-08-03T04:42:07.784Z,4.90
2022-08-03T04:44:42.572Z,4.90
2022-08-03T04:47:10.303Z,4.75
2022-08-03T04:49:38.738Z,5.15
2022-08-03T04:52:08.792Z,5.45
2022-08-03T04:54:41.484Z,4.95
2022-08-03T04:57:10.045Z,5.43
2022-08-03T05:00:01.386Z,5.75
2022-08-03T05:02:32.268Z,5.68
2022-08-03T05:05:00.102Z,6.38
2022-08-03T05:07:35.370Z,6.50
2022-08-03T05:10:14.921Z,5.68
2022-08-03T05:12:46.232Z,6.07
2022-08-03T05:15:14.544Z,6.20
2022-08-03T05:17:42.870Z,5.30
2022-08-03T05:20:11.509Z,5.50
2022-08-03T05:22:39.182Z,5.18
2022-08-03T05:25:07.117Z,5.43
2022-08-03T05:27:35.146Z,4.38
2022-08-03T05:30:30.937Z,4.90
2022-08-03T05:32:51.219Z,4.57
2022-08-03T05:36:00.564Z,4.72
2022-08-03T05:38:06.830Z,4.57
2022-08-03T05:40:37.091Z,5.03
2022-08-03T05:43:04.969Z,4.32
2022-08-03T05:45:32.743Z,5.65
2022-08-03T05:48:00.364Z,4.60
2022-08-03T05:50:27.875Z,5.57
2022-08-03T05:52:57.932Z,5.13
2022-08-03T05:55:26.341Z,5.80
2022-08-03T05:57:55.280Z,5.32
2022-08-03T06:00:24.355Z,5.97
2022-08-03T06:02:53.673Z,5.57
2022-08-03T06:05:21.469Z,5.15
2022-08-03T06:07:49.187Z,5.45
2022-08-03T06:10:37.241Z,4.60
2022-08-03T06:13:05.291Z,4.53
2022-08-03T06:15:35.409Z,4.97
2022-08-03T06:18:03.028Z,5.22
2022-08-03T06:20:30.617Z,3.72
2022-08-03T06:23:00.132Z,4.10
2022-08-03T06:25:29.094Z,3.85
2022-08-03T06:27:57.022Z,3.70
2022-08-03T06:30:25.570Z,4.40
2022-08-03T06:32:53.343Z,4.32
2022-08-03T06:35:21.380Z,3.20
2022-08-03T06:37:50.610Z,3.20
2022-08-03T06:40:24.305Z,3.03
2022-08-03T06:42:52.370Z,2.97
2022-08-03T06:45:20.070Z,2.83
2022-08-03T06:47:47.805Z,2.78
2022-08-03T06:50:16.956Z,2.75
2022-08-03T06:52:45.991Z,2.63
2022-08-03T06:55:13.872Z,2.28
2022-08-03T06:57:41.544Z,2.28
2022-08-03T07:00:12.405Z,2.42
2022-08-03T07:02:40.993Z,2.38
2022-08-03T07:05:13.766Z,2.88
2022-08-03T07:07:41.871Z,2.35
2022-08-03T07:10:11.811Z,2.00
2022-08-03T07:15:53.754Z,1.95
2022-08-03T07:18:14.112Z,2.08
2022-08-03T07:20:42.263Z,1.83
2022-08-03T07:23:10.031Z,1.90
2022-08-03T07:25:43.945Z,2.10
2022-08-03T07:28:11.592Z,1.90
2022-08-03T07:30:39.243Z,2.05
2022-08-03T07:33:07.066Z,1.77
2022-08-03T07:35:35.102Z,2.17
2022-08-03T07:38:03.079Z,1.70
2022-08-03T07:40:31.581Z,1.90
2022-08-03T07:43:00.424Z,2.13
2022-08-03T07:45:27.999Z,1.95
2022-08-03T07:47:56.002Z,2.03
2022-08-03T07:50:23.836Z,1.73
2022-08-03T07:52:52.871Z,1.63
2022-08-03T07:55:22.735Z,1.52
2022-08-03T07:58:04.837Z,1.42
2022-08-03T08:00:33.025Z,1.20
2022-08-03T08:03:00.746Z,1.48
2022-08-03T08:05:29.534Z,1.08
2022-08-03T08:07:57.140Z,1.23
2022-08-03T08:10:25.021Z,1.27
2022-08-03T08:12:53.727Z,1.13
2022-08-03T08:15:21.571Z,1.10
2022-08-03T08:17:57.808Z,1.02
2022-08-03T08:20:31.397Z,0.90
2022-08-03T08:23:03.538Z,1.10
2022-08-03T08:25:40.237Z,0.90
2022-08-03T08:28:30.710Z,0.90
2022-08-03T08:30:56.585Z,0.70
2022-08-03T08:33:25.784Z,0.80
2022-08-03T08:35:53.831Z,0.60
2022-08-03T08:38:22.648Z,0.90
2022-08-03T08:40:51.016Z,1.00
2022-08-03T08:43:18.942Z,0.80
2022-08-03T08:45:53.495Z,1.10
2022-08-03T08:48:25.102Z,1.00
2022-08-03T08:50:57.778Z,1.25
2022-08-03T08:53:28.940Z,0.90
2022-08-03T08:56:01.124Z,1.00
2022-08-03T08:58:31.099Z,0.80
2022-08-03T09:00:59.157Z,0.70
2022-08-03T09:03:30.024Z,0.70
2022-08-03T09:06:02.579Z,0.65
2022-08-03T09:08:31.879Z,0.65
2022-08-03T09:11:00.105Z,0.90
2022-08-03T09:13:29.205Z,1.27
2022-08-03T09:16:09.272Z,0.93
2022-08-03T09:18:37.986Z,1.27
2022-08-03T09:21:31.207Z,1.30
2022-08-03T09:24:03.781Z,0.95
2022-08-03T09:26:34.823Z,1.20
2022-08-03T09:29:14.073Z,1.40
2022-08-03T09:31:45.671Z,1.05
2022-08-03T09:34:18.169Z,1.00
2022-08-03T09:36:50.558Z,0.88
2022-08-03T09:39:40.242Z,1.10
2022-08-03T09:42:17.433Z,1.27
2022-08-03T09:44:48.511Z,1.00
2022-08-03T09:47:29.691Z,1.20
2022-08-03T09:50:08.808Z,1.10
2022-08-03T09:52:52.122Z,0.93
2022-08-03T09:56:32.938Z,1.00
2022-08-03T09:58:11.569Z,1.10
2022-08-03T10:01:03.993Z,1.27
2022-08-03T10:03:36.048Z,0.98
2022-08-03T10:06:28.829Z,1.30
2022-08-03T10:09:12.084Z,1.23
2022-08-03T10:11:42.337Z,1.50
2022-08-03T10:14:22.517Z,1.30
2022-08-03T10:16:50.795Z,1.42
2022-08-03T10:19:18.413Z,1.17
2022-08-03T10:21:55.200Z,1.20
2022-08-03T10:24:28.186Z,1.10
2022-08-03T10:27:08.057Z,1.13
2022-08-03T10:29:38.957Z,1.15
2022-08-03T10:32:15.955Z,1.02
2022-08-03T10:34:46.688Z,1.48
2022-08-03T10:37:17.831Z,1.10
2022-08-03T10:39:54.703Z,0.95
2022-08-03T10:42:27.295Z,1.10
2022-08-03T10:45:21.590Z,1.20
2022-08-03T10:47:51.628Z,1.80
2022-08-03T10:50:20.489Z,2.17
2022-08-03T10:52:58.217Z,1.52
2022-08-03T10:55:48.967Z,1.50
2022-08-03T10:58:36.623Z,1.30
2022-08-03T11:01:12.469Z,1.30
2022-08-03T11:03:56.012Z,1.45
2022-08-03T11:06:27.344Z,1.27
2022-08-03T11:09:10.888Z,1.25
2022-08-03T11:11:41.227Z,1.50
2022-08-03T11:14:21.407Z,1.50
2022-08-03T11:16:53.097Z,1.45
2022-08-03T11:19:28.199Z,1.48
2022-08-03T11:21:57.250Z,1.60
2022-08-03T11:24:37.255Z,1.52
2022-08-03T11:27:25.388Z,1.30
2022-08-03T11:30:10.102Z,1.75
2022-08-03T11:32:37.859Z,1.88
2022-08-03T11:35:36.681Z,1.63
2022-08-03T11:38:07.260Z,1.80
2022-08-03T11:40:49.778Z,1.48
2022-08-03T11:43:26.743Z,1.50
2022-08-03T11:46:00.864Z,1.98
2022-08-03T11:48:35.846Z,1.65
2022-08-03T11:51:05.439Z,1.90
2022-08-03T11:53:34.298Z,1.40
2022-08-03T11:56:12.675Z,1.52
2022-08-03T11:59:17.833Z,1.50
2022-08-03T12:01:41.706Z,1.40
2022-08-03T12:04:11.450Z,1.30
2022-08-03T12:06:57.515Z,1.60
2022-08-03T12:09:25.247Z,1.55
2022-08-03T12:11:59.359Z,1.20
2022-08-03T12:14:48.824Z,1.40
2022-08-03T12:17:19.885Z,0.93
2022-08-03T12:19:48.032Z,1.20
2022-08-03T12:22:18.822Z,1.33
2022-08-03T12:24:47.551Z,1.30
2022-08-03T12:27:26.552Z,1.10
2022-08-03T12:29:59.277Z,1.02
2022-08-03T12:32:31.587Z,0.98
2022-08-03T12:35:01.328Z,1.35
2022-08-03T12:37:30.297Z,0.95
2022-08-03T12:40:07.981Z,1.02
2022-08-03T12:42:40.444Z,1.27
2022-08-03T12:45:27.473Z,1.00
2022-08-03T12:47:57.909Z,1.10
2022-08-03T12:50:28.103Z,0.95
2022-08-03T12:52:56.793Z,1.42
2022-08-03T12:55:57.311Z,1.02
2022-08-03T12:58:36.116Z,0.90
2022-08-03T13:01:10.452Z,1.00
2022-08-03T13:03:50.210Z,0.90
2022-08-03T13:06:23.610Z,1.10
2022-08-03T13:09:06.076Z,0.90
2022-08-03T13:14:21.507Z,0.80
2022-08-03T13:16:49.884Z,0.93
2022-08-03T13:19:17.527Z,1.17
2022-08-03T13:22:01.866Z,1.13
2022-08-03T13:24:33.512Z,1.33
2022-08-03T13:27:22.052Z,1.60
2022-08-03T13:29:50.800Z,0.90
2022-08-03T13:32:18.458Z,1.23
2022-08-03T13:34:46.509Z,1.08
2022-08-03T13:37:14.698Z,1.20
2022-08-03T13:39:58.077Z,1.00
2022-08-03T13:42:29.905Z,1.15
2022-08-03T13:44:57.677Z,0.90
2022-08-03T13:47:25.422Z,1.27
2022-08-03T13:50:00.002Z,1.17
2022-08-03T13:52:32.439Z,1.10
2022-08-03T13:55:00.883Z,1.25
2022-08-03T13:58:06.568Z,1.10
2022-08-03T14:00:27.093Z,0.90
2022-08-03T14:03:14.805Z,1.38
2022-08-03T14:05:45.966Z,1.30
2022-08-03T14:08:14.284Z,1.48
2022-08-03T14:10:44.044Z,1.00
2022-08-03T14:13:15.991Z,1.20
2022-08-03T14:15:49.870Z,1.13
2022-08-03T14:18:28.750Z,1.05
2022-08-03T14:21:05.770Z,1.35
2022-08-03T14:23:36.018Z,0.88
2022-08-03T14:26:07.701Z,1.05
2022-08-03T14:28:36.039Z,1.00
2022-08-03T14:31:04.498Z,1.60
2022-08-03T14:33:36.500Z,1.27
2022-08-03T14:36:04.702Z,1.27
2022-08-03T14:38:33.115Z,1.10
2022-08-03T14:41:00.738Z,1.20
2022-08-03T14:43:34.074Z,1.02
2022-08-03T14:46:02.002Z,1.10
2022-08-03T14:50:32.673Z,1.30
2022-08-03T14:51:17.684Z,1.10
2022-08-03T14:53:46.546Z,0.75
2022-08-03T14:56:14.266Z,1.33
2022-08-03T14:58:42.227Z,1.30
2022-08-03T15:02:02.449Z,1.17
2022-08-03T15:03:57.486Z,1.30
2022-08-03T15:06:25.104Z,1.15
2022-08-03T15:09:20.883Z,1.20
2022-08-03T15:11:40.584Z,1.48
2022-08-03T15:14:09.498Z,1.35
2022-08-03T15:16:38.517Z,1.10
2022-08-03T15:20:00.986Z,1.13
2022-08-03T15:21:54.183Z,1.23
2022-08-03T15:24:21.864Z,1.20
2022-08-03T15:26:52.081Z,1.00
2022-08-03T15:30:07.032Z,0.68
2022-08-03T15:32:09.546Z,0.82
2022-08-03T15:34:37.526Z,0.80
2022-08-03T15:37:24.469Z,0.98
2022-08-03T15:39:59.308Z,0.85
2022-08-03T15:42:33.494Z,0.73
2022-08-03T15:45:01.128Z,1.38
2022-08-03T15:47:29.117Z,1.00
2022-08-03T15:49:57.653Z,1.10
2022-08-03T15:52:25.610Z,0.93
2022-08-03T15:54:53.260Z,1.02
2022-08-03T15:57:21.384Z,1.27
2022-08-03T15:59:48.975Z,0.82
2022-08-03T16:02:16.927Z,1.10
2022-08-03T16:04:44.486Z,1.00
2022-08-03T16:07:12.643Z,0.88
2022-08-03T16:09:42.055Z,0.90
2022-08-03T16:12:11.872Z,1.00
2022-08-03T16:14:52.950Z,1.17
2022-08-03T16:17:22.089Z,1.02
2022-08-03T16:19:50.640Z,0.90
2022-08-03T16:22:23.053Z,0.73
2022-08-03T16:24:52.767Z,1.02
2022-08-03T16:27:37.040Z,0.90
2022-08-03T16:30:07.014Z,0.75
2022-08-03T16:35:02.137Z,0.57
2022-08-03T16:37:39.069Z,0.60
2022-08-03T16:40:17.643Z,0.90
2022-08-03T16:42:48.014Z,0.85
2022-08-03T16:45:15.723Z,0.60
2022-08-03T16:47:44.187Z,0.50
2022-08-03T16:50:19.038Z,0.60
2022-08-03T16:52:48.556Z,0.45
2022-08-03T16:55:42.939Z,0.70
2022-08-03T16:58:05.622Z,0.70
2022-08-03T17:00:41.730Z,0.90
2022-08-03T17:05:48.070Z,0.68
2022-08-03T17:08:26.123Z,0.70
2022-08-03T17:10:55.787Z,0.70
2022-08-03T17:13:39.205Z,0.50
2022-08-03T17:16:09.747Z,0.70
2022-08-03T17:18:51.663Z,0.50
2022-08-03T17:21:29.510Z,0.55
2022-08-03T17:24:03.902Z,0.45
2022-08-03T17:26:37.248Z,0.60
2022-08-03T17:29:13.691Z,0.60
2022-08-03T17:31:49.045Z,0.85
2022-08-03T17:34:19.044Z,0.60
2022-08-03T17:37:03.694Z,0.60
2022-08-03T17:39:56.987Z,0.57
2022-08-03T17:45:02.306Z,0.85
2022-08-03T17:47:42.477Z,0.88
2022-08-03T17:50:24.629Z,0.60
2022-08-03T17:53:07.138Z,0.57
2022-08-03T17:55:54.917Z,0.73
2022-08-03T17:58:41.900Z,1.30
2022-08-03T18:02:00.777Z,0.70
2022-08-03T18:04:30.145Z,0.70
2022-08-03T18:07:11.086Z,0.65
2022-08-03T18:10:05.183Z,1.00
2022-08-03T18:12:51.744Z,0.73
2022-08-03T18:15:26.846Z,0.80
2022-08-03T18:18:02.756Z,0.98
2022-08-03T18:20:41.667Z,0.73
2022-08-03T18:23:24.784Z,0.80
2022-08-03T18:26:04.738Z,0.80
2022-08-03T18:28:35.145Z,0.80
2022-08-03T18:31:05.649Z,0.95
2022-08-03T18:34:19.855Z,0.80
2022-08-03T18:36:29.937Z,1.00
2022-08-03T18:39:01.605Z,0.98
2022-08-03T18:41:35.425Z,1.10
2022-08-03T18:44:09.557Z,0.95
2022-08-03T18:47:06.901Z,1.30
2022-08-03T18:50:00.726Z,0.90
2022-08-03T18:52:57.089Z,1.13
2022-08-03T18:55:38.586Z,1.05
2022-08-03T18:58:35.502Z,1.10
2022-08-03T19:02:00.545Z,1.10
2022-08-03T19:04:41.201Z,1.10
2022-08-03T19:07:11.174Z,1.05
2022-08-03T19:10:05.398Z,1.10
2022-08-03T19:12:48.882Z,1.20
2022-08-03T19:15:17.520Z,1.20
2022-08-03T19:18:08.867Z,1.10
2022-08-03T19:20:38.752Z,1.27
2022-08-03T19:23:06.804Z,1.20
2022-08-03T19:25:40.449Z,1.30
2022-08-03T19:28:09.472Z,1.20
2022-08-03T19:30:46.462Z,1.15
2022-08-03T19:33:22.846Z,1.30
2022-08-03T19:35:56.772Z,1.30
2022-08-03T19:38:28.270Z,1.10
2022-08-03T19:41:01.413Z,1.30
2022-08-03T19:43:49.599Z,0.95
2022-08-03T19:46:30.459Z,1.23
2022-08-03T19:49:02.120Z,1.30
2022-08-03T19:52:00.685Z,1.52
2022-08-03T19:54:29.352Z,1.27
2022-08-03T19:56:59.503Z,1.42
2022-08-03T19:59:34.611Z,1.30
2022-08-03T20:02:06.657Z,1.20
2022-08-03T20:04:34.954Z,1.10
2022-08-03T20:07:04.882Z,1.30
2022-08-03T20:09:35.929Z,1.50
2022-08-03T20:12:12.230Z,1.17
2022-08-03T20:14:40.151Z,1.17
2022-08-03T20:19:37.273Z,1.75
2022-08-03T20:22:06.492Z,1.30
2022-08-03T20:24:48.130Z,1.38
2022-08-03T20:27:21.362Z,1.63
2022-08-03T20:30:07.289Z,1.25
2022-08-03T20:32:35.670Z,1.13
2022-08-03T20:35:05.167Z,1.67
2022-08-03T20:37:37.672Z,1.55
2022-08-03T20:40:07.310Z,1.80
2022-08-03T20:42:35.476Z,1.45
2022-08-03T20:45:05.388Z,1.42
2022-08-03T20:47:35.828Z,1.52
2022-08-03T20:50:07.497Z,1.17
2022-08-03T20:52:43.867Z,1.35
2022-08-03T20:55:47.773Z,1.40
2022-08-03T20:58:09.989Z,1.70
2022-08-03T21:00:37.640Z,1.17
2022-08-03T21:03:06.753Z,1.52
2022-08-03T21:05:47.856Z,1.75
2022-08-03T21:10:49.997Z,1.42
2022-08-03T21:13:31.702Z,1.40
2022-08-03T21:16:07.107Z,1.70
2022-08-03T21:21:18.150Z,1.73
2022-08-03T21:26:20.775Z,1.77
2022-08-03T21:28:50.306Z,1.98
2022-08-03T21:31:25.316Z,1.73
2022-08-03T21:33:57.126Z,1.85
2022-08-03T21:36:31.390Z,1.88
2022-08-03T21:39:00.522Z,1.70
2022-08-03T21:41:31.043Z,1.60
2022-08-03T21:44:01.805Z,1.77
2022-08-03T21:46:52.851Z,1.70
2022-08-03T21:50:04.347Z,1.38
2022-08-03T21:52:09.655Z,1.75
2022-08-03T21:54:40.965Z,1.30
2022-08-03T21:57:29.336Z,1.70
2022-08-03T22:00:05.503Z,1.63
2022-08-03T22:02:44.853Z,2.00
2022-08-03T22:05:29.050Z,1.80
2022-08-03T22:08:09.210Z,1.60
2022-08-03T22:10:37.299Z,1.63
2022-08-03T22:13:04.973Z,1.35
2022-08-03T22:15:33.067Z,1.60
2022-08-03T22:18:03.621Z,1.48
2022-08-03T22:20:31.586Z,1.50
2022-08-03T22:23:04.792Z,1.40
2022-08-03T22:25:35.382Z,1.50
2022-08-03T22:28:07.631Z,1.55
2022-08-03T22:30:35.869Z,1.90
2022-08-03T22:33:05.600Z,1.58
2022-08-03T22:35:50.613Z,1.42
2022-08-03T22:38:19.478Z,1.30
2022-08-03T22:40:51.322Z,1.67
2022-08-03T22:43:26.109Z,1.95
2022-08-03T22:46:09.922Z,1.80
2022-08-03T22:48:41.404Z,1.92
2022-08-03T22:51:09.720Z,1.73
2022-08-03T22:53:39.119Z,1.90
2022-08-03T22:56:08.277Z,1.90
2022-08-03T22:58:36.078Z,1.90
2022-08-03T23:01:10.455Z,1.90
2022-08-03T23:04:01.093Z,1.90
2022-08-03T23:06:35.909Z,2.35
2022-08-03T23:09:09.314Z,1.80
2022-08-03T23:11:45.370Z,2.08
2022-08-03T23:14:15.485Z,1.80
2022-08-03T23:16:44.543Z,1.80
2022-08-03T23:19:17.139Z,2.08
2022-08-03T23:22:02.456Z,2.00
2022-08-03T23:24:35.948Z,2.17
2022-08-03T23:27:05.386Z,2.20
2022-08-03T23:29:38.689Z,2.20
2022-08-03T23:32:06.856Z,1.92
2022-08-03T23:34:54.539Z,1.70
2022-08-03T23:37:23.170Z,1.88
2022-08-03T23:39:54.114Z,2.55
2022-08-03T23:42:22.764Z,2.35
2022-08-03T23:44:56.443Z,2.10
2022-08-03T23:47:47.109Z,2.00
2022-08-03T23:50:15.852Z,1.95
2022-08-03T23:53:22.947Z,2.20
2022-08-03T23:56:12.093Z,1.75
2022-08-03T23:58:50.163Z,1.95
